Milton, Massachusetts
Current Conditions -  °F | °C
As of 10:34 PM on Wednesday 22 Oct 2014 (Local Time) from KOWD Reporting Station
Heavy Rain Heavy Rain  
Wind Chill: 51°   Ceiling: 1500
Heat Index: 51°   Visibility: 1mi
Dew Point: 49°   Wind: 16mph
Humidity: 92%   Direction: 20°NNE
Pressure: 29.8"   Gusts: 29mph
Location:  42.25°N, 71.08°W
Report Text: KOWD 230234Z 02014G25KT 1SM +RA BR SCT010 OVC015 11/09 A2980 RMK AO2 PK WND 03035/0211 LTG DSNT S-NW TSE0154 P0069 T01060094
Loading
Personal Weather Stations






























Interactive Weather Map
Tropical Storm Tracking
New forecast layout! Learn more

10-Day Weather Forecast

Advertisements
Track Severe Weather on mobile